Time;durP1;ratioP1;P1;durP2;ratioP2;P2;SDS_P1;SDS_P2;PMS_P1;PMS_P2;Temp;Humidity;BMP_temperature;BMP_pressure;BME280_temperature;BME280_humidity;BME280_pressure;Samples;Min_cycle;Max_cycle;Signal;HPM_P1;HPM_P2
2021/12/05 00:18:44;;;;;;;16.50;8.90;;;;;;;-0.88;100.00;99020.81;5010766;28;20660;-78
2021/12/05 00:23:58;;;;;;;15.77;9.80;;;;;;;-0.87;100.00;99023.38;5010364;28;20286;-79
2021/12/05 00:26:25;;;;;;;16.70;10.10;;;;;;;-0.87;100.00;99017.41;5008915;28;20200;-78
2021/12/05 00:29:09;;;;;;;17.77;9.90;;;;;;;-0.89;100.00;99017.41;5007370;28;20257;-78
2021/12/05 00:31:57;;;;;;;17.40;10.43;;;;;;;-0.88;100.00;99015.69;5006947;28;20300;-78
2021/12/05 00:40:41;;;;;;;20.33;10.63;;;;;;;-0.85;100.00;99026.78;5008817;28;20243;-78
2021/12/05 00:43:37;;;;;;;15.87;9.90;;;;;;;-0.83;100.00;99024.22;5012143;28;20225;-79
2021/12/05 00:49:31;;;;;;;15.60;9.63;;;;;;;-0.83;100.00;99022.50;5011066;28;20214;-79
2021/12/05 00:52:21;;;;;;;16.27;10.43;;;;;;;-0.83;100.00;99021.66;5017129;28;20200;-78
2021/12/05 00:57:55;;;;;;;17.13;10.17;;;;;;;-0.82;100.00;99023.38;4970707;28;20224;-79
2021/12/05 01:00:35;;;;;;;15.07;10.17;;;;;;;-0.82;100.00;99037.00;5008844;28;20213;-79
2021/12/05 01:03:29;;;;;;;15.93;10.50;;;;;;;-0.80;100.00;99037.00;5009262;28;20228;-79
2021/12/05 01:06:32;;;;;;;14.57;10.00;;;;;;;-0.79;100.00;99036.16;5013050;28;20200;-79
2021/12/05 01:09:18;;;;;;;16.97;10.33;;;;;;;-0.78;100.00;99041.22;5010678;28;20224;-79
2021/12/05 01:12:08;;;;;;;17.87;10.13;;;;;;;-0.77;100.00;99042.09;5007241;28;20201;-79
2021/12/05 01:14:50;;;;;;;15.97;9.87;;;;;;;-0.77;100.00;99042.09;5016696;28;20216;-79
2021/12/05 01:17:19;;;;;;;15.43;9.90;;;;;;;-0.78;100.00;99045.50;5010249;28;20212;-79
2021/12/05 01:19:48;;;;;;;14.47;9.87;;;;;;;-0.78;100.00;99045.50;5017060;28;20285;-78
2021/12/05 01:22:19;;;;;;;17.97;10.93;;;;;;;-0.77;100.00;99047.22;5016440;28;20216;-79
2021/12/05 01:24:57;;;;;;;15.97;10.20;;;;;;;-0.77;100.00;99049.78;5012257;28;20263;-79
2021/12/05 01:27:35;;;;;;;16.40;10.00;;;;;;;-0.76;100.00;99046.34;5017301;28;20209;-79
2021/12/05 01:30:09;;;;;;;15.53;9.90;;;;;;;-0.77;100.00;99050.63;5013578;28;20575;-79
2021/12/05 01:32:47;;;;;;;15.70;10.07;;;;;;;-0.74;100.00;99054.03;5015446;28;21748;-79
2021/12/05 01:35:27;;;;;;;16.47;9.73;;;;;;;-0.73;100.00;99048.06;5022797;28;20196;-78
2021/12/05 01:38:05;;;;;;;18.83;10.77;;;;;;;-0.72;100.00;99047.19;5022618;28;20212;-79
2021/12/05 01:40:50;;;;;;;14.40;9.57;;;;;;;-0.72;100.00;99047.19;5011834;28;20215;-78
2021/12/05 01:43:54;;;;;;;18.30;10.80;;;;;;;-0.71;100.00;99047.19;5021229;28;20221;-77
2021/12/05 01:46:55;;;;;;;14.53;10.00;;;;;;;-0.71;100.00;99056.56;5022668;28;20184;-78
2021/12/05 01:55:21;;;;;;;16.73;10.20;;;;;;;-0.69;100.00;99062.53;5015284;28;20324;-79
2021/12/05 01:58:04;;;;;;;17.17;10.40;;;;;;;-0.68;100.00;99056.56;5018715;28;20184;-78
2021/12/05 02:09:07;;;;;;;17.07;9.93;;;;;;;-0.66;100.00;99065.91;5010822;28;20231;-78
2021/12/05 02:12:01;;;;;;;16.70;10.33;;;;;;;-0.65;100.00;99069.31;5018184;28;20215;-78
2021/12/05 02:31:13;;;;;;;17.07;10.80;;;;;;;-0.60;100.00;99070.16;5021780;28;20204;-77
2021/12/05 02:39:26;;;;;;;15.57;10.30;;;;;;;-0.61;100.00;99077.00;5017496;28;20235;-77
2021/12/05 02:41:54;;;;;;;15.57;10.00;;;;;;;-0.61;100.00;99082.09;5009924;28;20211;-77
2021/12/05 02:44:25;;;;;;;18.13;10.97;;;;;;;-0.62;100.00;99082.94;5014151;28;20303;-77
2021/12/05 02:46:59;;;;;;;15.97;10.53;;;;;;;-0.61;100.00;99084.66;4998608;28;20658;-77
2021/12/05 02:49:26;;;;;;;15.80;10.20;;;;;;;-0.55;100.00;99082.94;4998877;28;20227;-77
2021/12/05 02:51:56;;;;;;;14.43;9.80;;;;;;;-0.51;100.00;99087.16;4994539;28;20213;-78
2021/12/05 02:54:26;;;;;;;14.37;9.50;;;;;;;-0.51;100.00;99093.16;4998520;28;20228;-77
2021/12/05 02:56:55;;;;;;;15.60;10.27;;;;;;;-0.59;100.00;99105.16;4995880;28;20208;-77
2021/12/05 02:59:26;;;;;;;14.70;10.23;;;;;;;-0.57;100.00;99096.59;5001523;28;20271;-78
2021/12/05 03:01:58;;;;;;;16.67;9.23;;;;;;;-0.57;100.00;99101.69;4997887;28;20212;-78
2021/12/05 03:04:29;;;;;;;15.40;9.73;;;;;;;-0.59;100.00;99110.25;4999762;28;20697;-77
2021/12/05 03:06:57;;;;;;;14.97;9.50;;;;;;;-0.60;100.00;99109.41;5000257;28;20274;-78
2021/12/05 03:09:26;;;;;;;15.27;10.07;;;;;;;-0.58;100.00;99111.97;4994490;28;20278;-77
2021/12/05 03:11:54;;;;;;;12.70;9.23;;;;;;;-0.55;100.00;99117.06;4998775;28;20287;-78
2021/12/05 03:14:22;;;;;;;14.50;9.63;;;;;;;-0.52;100.00;99121.34;5001081;28;20229;-78
2021/12/05 03:16:49;;;;;;;13.30;8.97;;;;;;;-0.50;100.00;99115.31;4998458;28;20206;-77
2021/12/05 03:19:17;;;;;;;18.00;10.13;;;;;;;-0.49;100.00;99117.03;5000035;28;20759;-77
2021/12/05 03:21:46;;;;;;;15.10;9.37;;;;;;;-0.49;100.00;99116.16;5001508;28;20236;-78
2021/12/05 03:24:16;;;;;;;14.83;9.53;;;;;;;-0.49;100.00;99109.38;5000047;28;20316;-78
2021/12/05 03:26:47;;;;;;;14.23;9.53;;;;;;;-0.46;100.00;99108.47;5000331;28;20842;-78
2021/12/05 03:29:16;;;;;;;14.87;8.83;;;;;;;-0.47;100.00;99106.78;4997645;28;20312;-78
2021/12/05 03:31:44;;;;;;;16.13;9.87;;;;;;;-0.46;100.00;99108.47;4998169;28;20883;-78
2021/12/05 03:34:14;;;;;;;14.03;9.27;;;;;;;-0.43;100.00;99106.75;4997189;28;20223;-78
2021/12/05 03:36:45;;;;;;;14.73;9.47;;;;;;;-0.40;100.00;99111.03;5015090;28;20238;-78
2021/12/05 03:39:12;;;;;;;13.73;9.03;;;;;;;-0.39;100.00;99111.03;4995190;28;20233;-78
2021/12/05 03:41:42;;;;;;;15.43;9.13;;;;;;;-0.36;100.00;99115.25;4999635;28;20292;-79
2021/12/05 03:44:13;;;;;;;14.37;9.87;;;;;;;-0.31;100.00;99110.13;5000522;28;20315;-79
2021/12/05 03:46:40;;;;;;;16.50;9.90;;;;;;;-0.30;100.00;99122.91;4998276;28;20217;-78
2021/12/05 03:49:09;;;;;;;18.93;10.47;;;;;;;-0.29;100.00;99119.47;4999579;28;20949;-78
2021/12/05 03:51:38;;;;;;;16.90;9.40;;;;;;;-0.25;100.00;99117.75;5000098;28;20215;-81
2021/12/05 03:54:06;;;;;;;19.93;10.40;;;;;;;-0.23;100.00;99124.59;4996263;28;20227;-78
2021/12/05 03:56:35;;;;;;;17.90;10.80;;;;;;;-0.19;100.00;99127.97;4999707;28;20752;-78
2021/12/05 03:59:03;;;;;;;19.43;11.97;;;;;;;-0.17;100.00;99128.81;5000233;28;20208;-78
2021/12/05 04:01:31;;;;;;;19.63;11.17;;;;;;;-0.13;100.00;99129.63;4997333;28;20304;-78
2021/12/05 04:03:57;;;;;;;17.80;10.43;;;;;;;-0.14;100.00;99133.91;4997997;28;20306;-78
2021/12/05 04:06:26;;;;;;;18.00;11.13;;;;;;;-0.13;100.00;99138.16;4997416;28;20263;-79
2021/12/05 04:08:54;;;;;;;18.43;10.83;;;;;;;-0.10;100.00;99138.16;4997917;28;20308;-79
2021/12/05 04:11:29;;;;;;;22.00;12.10;;;;;;;-0.10;100.00;99133.03;5000302;28;20301;-79
2021/12/05 04:13:56;;;;;;;21.43;11.80;;;;;;;-0.07;100.00;99143.25;4989935;28;20220;-78
2021/12/05 04:16:26;;;;;;;20.80;11.77;;;;;;;-0.05;100.00;99144.09;4997157;28;20308;-78
2021/12/05 04:18:55;;;;;;;23.77;12.73;;;;;;;-0.02;100.00;99151.78;5001972;28;20209;-78
2021/12/05 04:21:21;;;;;;;21.23;11.67;;;;;;;0.01;100.00;99162.84;5001120;28;20223;-79
2021/12/05 04:23:49;;;;;;;21.07;12.40;;;;;;;-0.02;100.00;99163.72;4995733;28;20275;-79
2021/12/05 04:26:19;;;;;;;22.10;11.87;;;;;;;-0.01;100.00;99166.28;4995013;28;20213;-79
2021/12/05 04:28:46;;;;;;;21.60;11.93;;;;;;;0.01;100.00;99176.50;4994939;28;20708;-79
2021/12/05 04:31:14;;;;;;;20.63;11.90;;;;;;;0.01;100.00;99166.25;4995964;28;20208;-79
2021/12/05 04:33:41;;;;;;;22.60;11.93;;;;;;;0.02;100.00;99170.53;5007302;28;20703;-78
2021/12/05 04:36:09;;;;;;;23.93;13.00;;;;;;;0.03;100.00;99171.38;4993042;28;20211;-79
2021/12/05 04:38:36;;;;;;;24.10;12.47;;;;;;;0.02;100.00;99170.53;4997996;28;20213;-81
2021/12/05 04:41:03;;;;;;;21.23;12.23;;;;;;;0.02;100.00;99175.66;4998235;28;20297;-80
2021/12/05 04:43:37;;;;;;;23.03;12.37;;;;;;;0.02;100.00;99165.41;5000062;28;20233;-81
2021/12/05 04:46:04;;;;;;;19.90;11.37;;;;;;;0.03;100.00;99174.78;4997213;28;20742;-80
2021/12/05 04:48:31;;;;;;;23.70;11.93;;;;;;;0.03;100.00;99174.78;4998156;28;20318;-81
2021/12/05 04:51:00;;;;;;;21.33;12.07;;;;;;;0.05;100.00;99183.31;4997549;28;20301;-81
2021/12/05 04:53:28;;;;;;;23.43;11.40;;;;;;;0.05;100.00;99185.88;4995323;28;20323;-81
2021/12/05 04:55:56;;;;;;;24.43;13.20;;;;;;;0.05;100.00;99177.34;5000806;28;20209;-81
2021/12/05 04:58:22;;;;;;;19.77;11.60;;;;;;;0.05;100.00;99188.44;4997156;28;20292;-81
2021/12/05 05:00:50;;;;;;;19.70;11.67;;;;;;;0.05;100.00;99193.56;4994518;28;20208;-80
2021/12/05 05:03:17;;;;;;;21.17;11.73;;;;;;;0.06;100.00;99200.41;4994130;28;20229;-80
2021/12/05 05:05:50;;;;;;;20.23;11.50;;;;;;;0.04;100.00;99198.72;4998142;28;20205;-81
2021/12/05 05:08:17;;;;;;;21.20;11.80;;;;;;;0.01;100.00;99209.00;5000842;28;20299;-81
2021/12/05 05:10:45;;;;;;;20.47;12.07;;;;;;;0.01;100.00;99216.69;4997674;28;20202;-81
2021/12/05 05:13:12;;;;;;;22.40;12.80;;;;;;;-0.01;100.00;99214.13;4995436;28;20602;-81
2021/12/05 05:15:38;;;;;;;23.13;11.97;;;;;;;-0.03;100.00;99206.44;4996597;28;20206;-81
2021/12/05 05:18:06;;;;;;;20.80;11.93;;;;;;;-0.04;100.00;99204.72;4997498;28;20237;-81
2021/12/05 05:20:37;;;;;;;23.57;12.37;;;;;;;-0.03;100.00;99209.00;5000091;28;20259;-81
2021/12/05 05:23:38;;;;;;;24.13;12.40;;;;;;;0.01;100.00;99203.88;4996336;28;20231;-81
2021/12/05 05:40:08;;;;;;;29.80;13.97;;;;;;;0.21;100.00;99230.19;4991385;28;20216;-81
2021/12/05 05:45:57;;;;;;;25.23;12.63;;;;;;;0.29;100.00;99232.72;4971408;28;20206;-82
2021/12/05 05:48:36;;;;;;;21.07;12.10;;;;;;;0.31;100.00;99229.28;4975943;28;20791;-82
2021/12/05 05:51:05;;;;;;;25.90;13.30;;;;;;;0.34;100.00;99238.69;4990700;28;20203;-82
2021/12/05 05:53:32;;;;;;;27.77;13.90;;;;;;;0.37;100.00;99243.81;5000627;28;20218;-82
2021/12/05 05:55:58;;;;;;;25.60;13.77;;;;;;;0.37;100.00;99247.22;4997069;28;20663;-82
2021/12/05 05:58:36;;;;;;;25.90;14.30;;;;;;;0.43;100.00;99250.59;4999398;28;20222;-82
2021/12/05 06:01:05;;;;;;;26.53;13.07;;;;;;;0.47;100.00;99260.81;4998554;28;20208;-82
2021/12/05 06:03:32;;;;;;;34.50;15.17;;;;;;;0.50;100.00;99252.25;5001812;28;20706;-82
2021/12/05 06:06:01;;;;;;;27.00;14.07;;;;;;;0.53;100.00;99259.94;4996837;28;20231;-82
2021/12/05 06:08:30;;;;;;;30.77;14.27;;;;;;;0.53;100.00;99247.94;4999915;28;20215;-82
2021/12/05 06:11:00;;;;;;;26.97;13.63;;;;;;;0.55;100.00;99264.19;4999644;28;20206;-81
2021/12/05 06:13:29;;;;;;;28.97;14.13;;;;;;;0.53;100.00;99265.91;4990972;28;20232;-82
2021/12/05 06:15:56;;;;;;;29.00;14.50;;;;;;;0.54;100.00;99279.56;4994797;28;20821;-82
2021/12/05 06:18:23;;;;;;;27.27;14.33;;;;;;;0.54;100.00;99282.97;4997928;28;20238;-82
2021/12/05 06:20:50;;;;;;;27.73;14.57;;;;;;;0.55;100.00;99288.97;5001291;28;20213;-82
2021/12/05 06:23:16;;;;;;;28.70;15.00;;;;;;;0.55;100.00;99284.69;4995216;28;20224;-82
2021/12/05 06:25:47;;;;;;;32.10;14.47;;;;;;;0.55;100.00;99292.38;4997142;28;20561;-82
2021/12/05 06:28:14;;;;;;;30.47;14.57;;;;;;;0.54;100.00;99295.81;4995234;28;20202;-82
2021/12/05 06:30:49;;;;;;;25.90;14.17;;;;;;;0.54;100.00;99305.22;5000999;28;20234;-82
2021/12/05 06:39:19;;;;;;;25.70;14.20;;;;;;;0.57;100.00;99318.03;4996267;28;20583;-82
2021/12/05 06:42:04;;;;;;;27.90;14.47;;;;;;;0.57;100.00;99329.13;4997765;28;20627;-81
2021/12/05 06:47:22;;;;;;;25.13;13.70;;;;;;;0.56;100.00;99332.59;4999851;28;20218;-82
2021/12/05 06:49:49;;;;;;;28.67;14.90;;;;;;;0.57;100.00;99330.84;5001640;28;20619;-82
2021/12/05 06:52:16;;;;;;;30.60;15.70;;;;;;;0.57;100.00;99333.44;5000967;28;20239;-82
2021/12/05 06:54:43;;;;;;;25.47;14.17;;;;;;;0.59;100.00;99330.84;5005207;28;20264;-82
2021/12/05 06:57:10;;;;;;;25.93;14.83;;;;;;;0.58;100.00;99347.94;5002010;28;20220;-81
2021/12/05 06:59:39;;;;;;;24.00;13.47;;;;;;;0.56;100.00;99347.97;5002146;28;20200;-81
2021/12/05 07:02:07;;;;;;;20.37;11.43;;;;;;;0.55;100.00;99359.09;5001333;28;20779;-80
2021/12/05 07:05:11;;;;;;;25.40;12.93;;;;;;;0.56;100.00;99367.63;5003882;28;20227;-81
2021/12/05 07:07:39;;;;;;;21.73;12.27;;;;;;;0.55;100.00;99366.78;5004220;28;20246;-81
2021/12/05 07:10:08;;;;;;;24.37;13.80;;;;;;;0.54;100.00;99372.75;5002406;28;20225;-81
2021/12/05 07:15:18;;;;;;;22.67;11.80;;;;;;;0.55;100.00;99379.59;4979844;28;20702;-81
2021/12/05 07:20:47;;;;;;;28.53;14.93;;;;;;;0.59;100.00;99389.84;5001520;28;20608;-81
2021/12/05 07:23:24;;;;;;;28.73;14.67;;;;;;;0.59;100.00;99393.25;5001841;28;20571;-80
2021/12/05 07:26:07;;;;;;;27.00;13.87;;;;;;;0.59;100.00;99402.69;5003512;28;20196;-81
2021/12/05 07:42:22;;;;;;;28.67;13.80;;;;;;;0.63;100.00;99412.06;5001644;28;20259;-81
2021/12/05 07:44:49;;;;;;;30.77;13.63;;;;;;;0.64;100.00;99408.66;4999220;28;20228;-81
2021/12/05 07:47:18;;;;;;;25.20;14.37;;;;;;;0.64;100.00;99424.03;4999210;28;20234;-81
2021/12/05 07:49:45;;;;;;;27.40;14.67;;;;;;;0.64;100.00;99426.59;5021457;28;20226;-81
2021/12/05 07:52:17;;;;;;;33.13;16.53;;;;;;;0.64;100.00;99432.56;5024713;28;20302;-80
2021/12/05 07:54:48;;;;;;;32.30;16.13;;;;;;;0.65;100.00;99431.72;5018371;28;20311;-81
2021/12/05 07:57:19;;;;;;;27.50;15.40;;;;;;;0.65;100.00;99436.84;5020076;28;20234;-80
2021/12/05 07:59:57;;;;;;;29.27;14.87;;;;;;;0.66;100.00;99438.53;5020402;28;20804;-80
2021/12/05 08:16:10;;;;;;;34.07;16.50;;;;;;;0.68;100.00;99441.09;5017101;28;20579;-80
2021/12/05 08:18:36;;;;;;;31.53;16.33;;;;;;;0.68;100.00;99446.25;5014736;28;20212;-80
2021/12/05 08:21:05;;;;;;;33.43;16.63;;;;;;;0.68;100.00;99447.09;5020983;28;20219;-81
2021/12/05 08:23:34;;;;;;;33.60;16.63;;;;;;;0.70;100.00;99458.22;5016184;28;20228;-80
2021/12/05 08:26:05;;;;;;;28.33;15.00;;;;;;;0.71;100.00;99469.31;5014239;28;20824;-81
2021/12/05 08:28:52;;;;;;;33.50;16.13;;;;;;;0.71;100.00;99461.63;5022273;28;20199;-81
2021/12/05 08:31:30;;;;;;;33.97;16.60;;;;;;;0.70;100.00;99463.34;5022533;28;20229;-81
2021/12/05 08:34:06;;;;;;;37.17;18.40;;;;;;;0.72;100.00;99460.75;5017468;28;20252;-81
2021/12/05 08:37:00;;;;;;;43.63;24.80;;;;;;;0.74;100.00;99465.03;5018003;28;20207;-80
2021/12/05 08:39:59;;;;;;;45.93;25.40;;;;;;;0.76;100.00;99467.59;5017894;28;20206;-80
2021/12/05 08:45:40;;;;;;;45.10;23.47;;;;;;;0.77;100.00;99471.84;5021144;28;20210;-82
2021/12/05 09:24:20;;;;;;;34.13;17.13;;;;;;;1.12;100.00;99511.88;5022758;28;20274;-82
2021/12/05 09:50:50;;;;;;;39.30;18.60;;;;;;;1.20;100.00;99517.84;5019248;28;20230;-82
2021/12/05 09:52:12;;;;;;;44.80;22.07;;;;;;;1.39;100.00;99530.56;5011543;28;20241;-82
2021/12/05 10:03:03;;;;;;;44.03;20.20;;;;;;;1.58;100.00;99545.00;5012336;28;20787;-83
2021/12/05 10:11:15;;;;;;;42.07;20.53;;;;;;;1.60;100.00;99542.41;5018769;28;20221;-83
2021/12/05 10:13:56;;;;;;;38.13;17.93;;;;;;;1.54;100.00;99542.47;5014575;28;20223;-83
2021/12/05 10:16:41;;;;;;;34.70;18.23;;;;;;;1.55;100.00;99546.72;5019520;28;20211;-83
2021/12/05 10:19:57;;;;;;;43.60;20.67;;;;;;;1.52;100.00;99550.19;5012603;28;20363;-85
2021/12/05 10:36:12;;;;;;;38.97;20.30;;;;;;;1.48;100.00;99562.19;5015612;28;20227;-84
2021/12/05 10:38:44;;;;;;;36.80;16.70;;;;;;;1.43;100.00;99555.38;5013498;28;20212;-83
2021/12/05 10:41:34;;;;;;;37.87;17.57;;;;;;;1.40;100.00;99558.81;5019140;28;20235;-83
2021/12/05 10:44:03;;;;;;;36.23;17.67;;;;;;;1.41;100.00;99554.53;5019503;28;20221;-85
2021/12/05 10:46:30;;;;;;;34.80;17.40;;;;;;;1.40;100.00;99552.84;5016849;28;20212;-83
2021/12/05 10:49:00;;;;;;;31.53;15.57;;;;;;;1.39;100.00;99548.53;5012115;28;20196;-87
2021/12/05 10:51:30;;;;;;;36.43;16.57;;;;;;;1.35;100.00;99559.69;5006571;28;20225;-84
2021/12/05 10:53:58;;;;;;;35.23;16.73;;;;;;;1.35;100.00;99557.97;5016216;28;20742;-83
2021/12/05 10:56:26;;;;;;;33.70;16.10;;;;;;;1.34;100.00;99556.28;5016514;28;20200;-87
2021/12/05 10:58:58;;;;;;;35.37;17.10;;;;;;;1.29;100.00;99558.03;5018689;28;20204;-85
2021/12/05 11:01:29;;;;;;;34.63;16.93;;;;;;;1.30;100.00;99560.59;5016078;28;20381;-83
2021/12/05 11:03:59;;;;;;;39.60;17.20;;;;;;;1.25;100.00;99559.75;5019990;28;20608;-83
2021/12/05 11:06:37;;;;;;;35.73;17.17;;;;;;;1.20;100.00;99558.94;5015956;28;20211;-84
2021/12/05 11:09:08;;;;;;;36.80;17.37;;;;;;;1.23;100.00;99560.63;5019908;28;20200;-85
2021/12/05 11:11:35;;;;;;;36.17;15.93;;;;;;;1.20;100.00;99571.78;5013630;28;20327;-85
2021/12/05 11:14:03;;;;;;;34.10;16.07;;;;;;;1.23;100.00;99565.75;5012719;28;20224;-85
2021/12/05 11:16:43;;;;;;;36.63;16.87;;;;;;;1.20;100.00;99573.50;5018087;28;20266;-85
2021/12/05 11:19:33;;;;;;;32.33;15.50;;;;;;;1.16;100.00;99567.50;5019542;28;20206;-85
2021/12/05 11:22:06;;;;;;;37.77;16.63;;;;;;;1.17;100.00;99558.09;5022693;28;20263;-84
2021/12/05 11:24:35;;;;;;;37.83;17.47;;;;;;;1.13;100.00;99557.25;5020585;28;20263;-83
2021/12/05 11:27:07;;;;;;;40.37;17.13;;;;;;;1.13;100.00;99554.69;5022934;28;20204;-85
2021/12/05 11:29:43;;;;;;;37.57;15.80;;;;;;;1.15;100.00;99557.25;5020316;28;20208;-89
2021/12/05 11:32:13;;;;;;;44.53;18.07;;;;;;;1.17;100.00;99563.22;5028285;28;20200;-86
2021/12/05 11:34:40;;;;;;;40.57;16.13;;;;;;;1.16;100.00;99558.94;5024851;28;20224;-85
2021/12/05 11:37:08;;;;;;;36.40;15.57;;;;;;;1.16;100.00;99570.06;5023486;28;20215;-83
2021/12/05 11:39:34;;;;;;;37.87;14.87;;;;;;;1.16;100.00;99574.34;5021605;28;20215;-88
2021/12/05 11:42:01;;;;;;;39.83;16.57;;;;;;;1.12;100.00;99578.66;5024546;28;20211;-87
2021/12/05 11:44:27;;;;;;;39.57;15.37;;;;;;;1.10;100.00;99575.22;5014672;28;20225;-86
2021/12/05 11:46:54;;;;;;;39.97;16.23;;;;;;;1.10;100.00;99573.50;5021261;28;20709;-83
2021/12/05 11:49:23;;;;;;;46.60;17.53;;;;;;;1.06;100.00;99571.81;5018901;28;20208;-86
2021/12/05 11:51:52;;;;;;;46.57;17.37;;;;;;;1.11;100.00;99580.38;5018562;28;20930;-84
2021/12/05 11:54:22;;;;;;;38.63;15.63;;;;;;;1.09;100.00;99579.53;5023958;28;20227;-85
2021/12/05 11:56:54;;;;;;;38.10;15.07;;;;;;;1.07;100.00;99583.81;5019752;28;20207;-83
2021/12/05 11:59:23;;;;;;;39.47;15.60;;;;;;;1.08;100.00;99580.38;5022075;28;20227;-87
2021/12/05 12:01:54;;;;;;;39.83;16.57;;;;;;;1.09;100.00;99579.53;5018700;28;20204;-84
2021/12/05 12:04:25;;;;;;;38.13;16.37;;;;;;;1.05;100.00;99588.06;5024006;28;20228;-85
2021/12/05 12:07:09;;;;;;;40.90;16.40;;;;;;;1.05;100.00;99588.06;5018536;28;20284;-84
2021/12/05 12:09:37;;;;;;;39.33;15.60;;;;;;;1.10;100.00;99596.63;5014148;28;20229;-86
2021/12/05 12:12:04;;;;;;;38.30;15.70;;;;;;;1.17;100.00;99599.19;5021083;28;20208;-83
2021/12/05 12:14:31;;;;;;;43.70;16.57;;;;;;;1.19;100.00;99595.72;5022918;28;20227;-88
2021/12/05 12:16:58;;;;;;;38.40;15.77;;;;;;;1.17;100.00;99589.75;5022048;28;20212;-87
2021/12/05 12:19:24;;;;;;;44.67;17.00;;;;;;;1.18;100.00;99576.06;5024587;28;20204;-85
2021/12/05 12:21:56;;;;;;;41.13;15.77;;;;;;;1.19;100.00;99590.59;5021709;28;20251;-88
2021/12/05 12:24:23;;;;;;;38.50;15.60;;;;;;;1.20;100.00;99594.88;5015348;28;20227;-86
2021/12/05 12:26:52;;;;;;;34.53;15.03;;;;;;;1.19;100.00;99597.44;5021710;28;20730;-86
2021/12/05 12:29:19;;;;;;;33.70;15.77;;;;;;;1.19;100.00;99602.59;5021871;28;20601;-87
2021/12/05 12:31:49;;;;;;;38.23;16.43;;;;;;;1.13;100.00;99601.75;5023585;28;20282;-88
2021/12/05 12:34:20;;;;;;;36.00;16.67;;;;;;;1.12;100.00;99607.72;5019814;28;20231;-85
2021/12/05 12:36:50;;;;;;;34.20;14.53;;;;;;;1.15;100.00;99606.03;5021823;28;20215;-86
2021/12/05 12:39:32;;;;;;;34.47;15.03;;;;;;;1.12;100.00;99614.59;5021718;28;20242;-85
2021/12/05 12:42:10;;;;;;;36.77;15.63;;;;;;;1.09;100.00;99612.91;5017353;28;20910;-86
2021/12/05 12:44:36;;;;;;;34.93;15.73;;;;;;;1.08;100.00;99615.47;5023281;28;20323;-87
2021/12/05 12:47:05;;;;;;;36.53;16.67;;;;;;;0.98;100.00;99617.19;5019680;28;20206;-87
2021/12/05 12:49:34;;;;;;;32.53;14.73;;;;;;;0.93;100.00;99619.81;5020766;28;20216;-86
2021/12/05 12:52:05;;;;;;;31.90;14.63;;;;;;;0.97;100.00;99623.22;5018304;28;20629;-86
2021/12/05 12:54:35;;;;;;;31.67;14.13;;;;;;;0.94;100.00;99625.78;5020657;28;20321;-87
2021/12/05 12:57:13;;;;;;;28.13;13.20;;;;;;;0.94;100.00;99620.66;5024262;28;20208;-86
2021/12/05 12:59:44;;;;;;;31.60;13.40;;;;;;;0.92;100.00;99628.34;5021096;28;20216;-87
2021/12/05 13:02:32;;;;;;;31.17;14.00;;;;;;;0.97;100.00;99630.03;5020366;28;20275;-87
2021/12/05 13:05:18;;;;;;;28.27;13.60;;;;;;;0.96;100.00;99636.03;5025079;28;20223;-86
2021/12/05 13:10:39;;;;;;;26.73;12.80;;;;;;;0.96;100.00;99642.03;5026002;28;20220;-87
2021/12/05 13:13:15;;;;;;;27.97;13.10;;;;;;;0.96;100.00;99636.03;5030659;28;20257;-84
2021/12/05 13:15:45;;;;;;;29.73;13.37;;;;;;;0.96;100.00;99639.47;5030435;28;20207;-85
2021/12/05 13:18:23;;;;;;;27.60;13.50;;;;;;;0.98;100.00;99636.91;5034280;28;20202;-84
2021/12/05 13:20:54;;;;;;;31.67;15.37;;;;;;;0.98;100.00;99631.75;5032488;28;20539;-87
2021/12/05 13:23:30;;;;;;;43.07;22.27;;;;;;;0.97;100.00;99645.44;5034682;28;20247;-87
2021/12/05 13:26:03;;;;;;;32.27;17.50;;;;;;;0.94;100.00;99649.72;5033288;28;20203;-88
2021/12/05 13:28:34;;;;;;;27.60;16.20;;;;;;;0.94;100.00;99652.28;5024273;28;20203;-89
2021/12/05 13:31:32;;;;;;;56.47;29.20;;;;;;;0.92;100.00;99664.28;5036363;28;20280;-84
2021/12/05 13:34:37;;;;;;;28.93;17.03;;;;;;;0.95;100.00;99663.44;5037825;28;20234;-85
2021/12/05 13:37:34;;;;;;;30.63;15.07;;;;;;;0.96;100.00;99677.13;5025922;28;20214;-88
2021/12/05 13:40:12;;;;;;;29.30;13.83;;;;;;;0.95;100.00;99668.56;5034608;28;20459;-86
2021/12/05 13:42:43;;;;;;;26.43;14.37;;;;;;;0.94;100.00;99680.53;5031486;28;20826;-87
2021/12/05 13:45:17;;;;;;;27.53;14.10;;;;;;;0.96;100.00;99677.13;5028602;28;20255;-88
2021/12/05 13:48:07;;;;;;;29.83;14.57;;;;;;;0.91;100.00;99680.53;5021731;28;20210;-88
2021/12/05 13:50:37;;;;;;;137.43;62.83;;;;;;;0.88;100.00;99680.56;5031975;28;20293;-88
2021/12/05 13:53:22;;;;;;;91.67;43.47;;;;;;;0.93;100.00;99686.53;5029275;28;20230;-90
2021/12/05 13:56:01;;;;;;;29.50;15.63;;;;;;;0.92;100.00;99689.94;5033982;28;20207;-86
2021/12/05 13:58:36;;;;;;;32.30;16.00;;;;;;;0.91;100.00;99693.34;5038741;28;20219;-88
2021/12/05 14:01:06;;;;;;;29.83;16.33;;;;;;;0.87;100.00;99701.94;5036485;28;20207;-86
2021/12/05 14:03:48;;;;;;;49.37;23.30;;;;;;;0.82;100.00;99698.50;5030423;28;20220;-90
2021/12/05 14:06:35;;;;;;;70.40;31.27;;;;;;;0.81;100.00;99696.81;5023910;28;20200;-84
2021/12/05 14:09:07;;;;;;;90.87;37.13;;;;;;;0.79;100.00;99695.09;5007102;28;20211;-83
2021/12/05 14:11:35;;;;;;;124.33;47.40;;;;;;;0.80;100.00;99701.94;5007544;28;20226;-90
2021/12/05 14:14:04;;;;;;;54.73;24.33;;;;;;;0.80;100.00;99712.22;5011463;28;20320;-84
2021/12/05 14:16:35;;;;;;;25.60;12.97;;;;;;;0.78;100.00;99722.47;5014414;28;20212;-85
2021/12/05 14:19:01;;;;;;;69.70;28.00;;;;;;;0.75;100.00;99718.19;5012938;28;20212;-88
2021/12/05 14:21:29;;;;;;;135.30;46.67;;;;;;;0.69;100.00;99722.50;5010026;28;20677;-83
2021/12/05 14:23:58;;;;;;;50.37;22.43;;;;;;;0.70;100.00;99716.50;5009909;28;20235;-84
2021/12/05 14:26:27;;;;;;;26.53;14.13;;;;;;;0.72;100.00;99714.78;5012056;28;20212;-83
2021/12/05 14:28:56;;;;;;;25.27;12.50;;;;;;;0.69;100.00;99723.34;5015430;28;20204;-87
2021/12/05 14:31:24;;;;;;;23.03;11.83;;;;;;;0.63;100.00;99735.31;5011391;28;20232;-89
2021/12/05 14:33:54;;;;;;;23.93;12.70;;;;;;;0.65;100.00;99751.56;5018562;28;20974;-84
2021/12/05 14:36:23;;;;;;;25.20;12.07;;;;;;;0.65;100.00;99755.00;5020330;28;20212;-83
2021/12/05 14:39:09;;;;;;;27.10;12.67;;;;;;;0.62;100.00;99764.41;5015143;28;20220;-84
2021/12/05 14:41:36;;;;;;;26.67;12.50;;;;;;;0.59;100.00;99772.94;5010580;28;21085;-84
2021/12/05 14:44:03;;;;;;;24.10;12.57;;;;;;;0.58;100.00;99776.34;5020870;28;20225;-85
2021/12/05 14:46:30;;;;;;;23.47;11.77;;;;;;;0.57;100.00;99782.34;5014286;28;20221;-85
2021/12/05 14:49:01;;;;;;;21.37;11.10;;;;;;;0.55;100.00;99778.94;5015625;28;20225;-84
2021/12/05 14:51:36;;;;;;;22.87;12.10;;;;;;;0.53;100.00;99778.91;5017676;28;20223;-83
2021/12/05 14:54:05;;;;;;;22.83;12.60;;;;;;;0.52;100.00;99791.75;5017452;28;20225;-86
2021/12/05 14:56:34;;;;;;;31.10;14.10;;;;;;;0.47;100.00;99796.84;5015338;28;20208;-86
2021/12/05 14:59:07;;;;;;;26.33;14.07;;;;;;;0.37;100.00;99798.56;5016987;28;20214;-86
2021/12/05 15:01:34;;;;;;;28.73;13.23;;;;;;;0.36;100.00;99801.97;5020328;28;20203;-83
2021/12/05 15:04:04;;;;;;;29.47;14.43;;;;;;;0.32;100.00;99807.94;5018235;28;20295;-82
2021/12/05 15:06:35;;;;;;;27.77;13.83;;;;;;;0.32;100.00;99820.78;5022311;28;20210;-83
2021/12/05 15:09:04;;;;;;;51.13;23.53;;;;;;;0.29;100.00;99822.47;5016785;28;20220;-83
2021/12/05 15:11:31;;;;;;;33.80;17.00;;;;;;;0.28;100.00;99821.63;5022133;28;20214;-83
2021/12/05 15:14:08;;;;;;;31.90;14.93;;;;;;;0.27;100.00;99822.47;5020517;28;20236;-83
2021/12/05 15:16:34;;;;;;;32.03;15.37;;;;;;;0.24;100.00;99831.84;5020697;28;20781;-86
2021/12/05 15:19:02;;;;;;;31.10;14.27;;;;;;;0.16;100.00;99830.13;5015992;28;20205;-88
2021/12/05 15:21:42;;;;;;;31.50;14.93;;;;;;;0.08;100.00;99830.94;5018498;28;20843;-85
2021/12/05 15:24:13;;;;;;;31.03;14.43;;;;;;;0.03;100.00;99830.06;5017191;28;20226;-84